createdAt,value
2018-12-09T00:00:31.937Z,93158.33
2018-12-09T00:15:34.817Z,93171.30
2018-12-09T00:30:37.373Z,93169.98
2018-12-09T00:45:40.107Z,93166.06
2018-12-09T01:00:43.507Z,93165.69
2018-12-09T01:15:46.429Z,93153.08
2018-12-09T01:30:49.734Z,93156.91
2018-12-09T01:45:52.968Z,93160.70
2018-12-09T02:01:00.150Z,93143.45
2018-12-09T02:16:04.529Z,93137.98
2018-12-09T02:31:07.672Z,93148.76
2018-12-09T02:46:12.012Z,93151.53
2018-12-09T03:01:17.849Z,93144.86
2018-12-09T03:16:23.303Z,93151.23
2018-12-09T03:31:29.660Z,93150.77
2018-12-09T03:46:32.229Z,93153.45
2018-12-09T04:01:34.795Z,93151.80
2018-12-09T04:16:38.026Z,93136.35
2018-12-09T04:31:42.228Z,93143.64
2018-12-09T04:46:45.097Z,93146.12
2018-12-09T05:01:48.147Z,93124.16
2018-12-09T05:16:50.728Z,93125.02
2018-12-09T05:31:53.689Z,93131.29
2018-12-09T05:46:57.286Z,93148.94
2018-12-09T06:02:12.305Z,93152.69
2018-12-09T06:17:16.446Z,93153.17
2018-12-09T06:32:19.308Z,93139.17
2018-12-09T06:47:23.509Z,93142.53
2018-12-09T07:02:26.813Z,93128.67
2018-12-09T07:17:31.105Z,93140.34
2018-12-09T07:32:33.697Z,93138.39
2018-12-09T07:47:36.510Z,93105.41
2018-12-09T08:02:40.307Z,93102.50
2018-12-09T08:17:43.772Z,93095.86
2018-12-09T08:32:47.210Z,93097.75
2018-12-09T08:47:50.620Z,93083.52
2018-12-09T09:02:54.323Z,93084.97
2018-12-09T09:17:57.264Z,93036.48
2018-12-09T09:33:03.499Z,93040.52
2018-12-09T09:48:06.460Z,93034.30
2018-12-09T10:03:10.250Z,93019.84
2018-12-09T10:18:14.318Z,93010.23
2018-12-09T10:33:16.918Z,92980.09
2018-12-09T10:48:19.519Z,92977.54
2018-12-09T11:03:23.283Z,92962.88
2018-12-09T11:18:25.858Z,92941.16
2018-12-09T11:33:31.303Z,92921.58
2018-12-09T11:48:33.894Z,92912.13
2018-12-09T12:03:38.299Z,92918.40
2018-12-09T12:18:41.990Z,92900.78
2018-12-09T12:33:46.170Z,92895.02
2018-12-09T12:48:49.024Z,92883.83
2018-12-09T13:03:53.156Z,92871.90
2018-12-09T13:18:56.224Z,92871.85
2018-12-09T13:33:59.638Z,92859.67
2018-12-09T13:49:03.698Z,92859.43
2018-12-09T14:04:07.695Z,92835.08
2018-12-09T14:19:11.273Z,92836.84
2018-12-09T14:34:15.201Z,92842.16
2018-12-09T14:49:18.041Z,92810.07
2018-12-09T15:04:21.669Z,92811.23
2018-12-09T15:19:29.656Z,92821.72
2018-12-09T15:34:32.502Z,92801.28
2018-12-09T15:49:35.927Z,92800.34
2018-12-09T16:04:39.907Z,92810.41
2018-12-09T16:19:42.815Z,92803.04
2018-12-09T16:34:46.424Z,92795.11
2018-12-09T16:49:49.442Z,92789.78
2018-12-09T17:04:54.275Z,92820.98
2018-12-09T17:20:05.921Z,92804.97
2018-12-09T17:35:02.997Z,92812.62
2018-12-09T17:50:09.382Z,92815.22
2018-12-09T18:05:12.279Z,92818.35
2018-12-09T18:20:16.194Z,92810.62
2018-12-09T18:35:19.400Z,92823.47
2018-12-09T18:50:22.917Z,92794.59
2018-12-09T19:05:25.736Z,92792.70
2018-12-09T19:20:29.248Z,92789.27
2018-12-09T19:35:32.615Z,92806.33
2018-12-09T19:50:35.330Z,92821.14
2018-12-09T20:05:37.937Z,92806.08
2018-12-09T20:20:44.718Z,92792.36
2018-12-09T20:35:47.703Z,92780.84
2018-12-09T20:50:50.382Z,92766.53
2018-12-09T21:05:53.233Z,92782.52
2018-12-09T21:20:56.086Z,92776.27
2018-12-09T21:35:58.785Z,92782.52
2018-12-09T21:51:02.443Z,92778.98
2018-12-09T22:06:05.027Z,92779.94
2018-12-09T22:21:09.222Z,92775.19
2018-12-09T22:36:12.651Z,92772.77
2018-12-09T22:51:16.417Z,92774.84
2018-12-09T23:06:19.016Z,92754.14
2018-12-09T23:21:21.928Z,92752.59
2018-12-09T23:36:25.272Z,92740.45
2018-12-09T23:51:58.261Z,92731.65
